createdAt,value
2023-06-17T00:01:56.030Z,27.187290969899667
2023-06-17T00:12:26.465Z,27.140468227424748
2023-06-17T00:18:46.880Z,26.31438127090301
2023-06-17T00:29:23.563Z,27.11371237458194
2023-06-17T00:41:13.158Z,30.187290969899667
2023-06-17T00:47:34.656Z,31.05685618729097
2023-06-17T00:53:55.330Z,31.204013377926422
2023-06-17T01:00:15.955Z,31.247491638795985
2023-06-17T01:06:36.594Z,32.819397993311036
2023-06-17T01:12:56.245Z,34.10702341137124
2023-06-17T01:19:16.037Z,35.812709030100336
2023-06-17T01:25:36.497Z,39.76588628762542
2023-06-17T01:41:10.407Z,36.66220735785953
2023-06-17T01:47:30.920Z,35.408026755852845
2023-06-17T01:55:45.201Z,40.280936454849495
2023-06-17T02:07:45.434Z,39.23411371237458
2023-06-17T02:14:05.386Z,41.07357859531773
2023-06-17T02:20:25.182Z,38.852842809364546
2023-06-17T02:32:20.011Z,38.08695652173913
2023-06-17T02:45:10.733Z,35.391304347826086
2023-06-17T02:51:30.886Z,34.240802675585286
2023-06-17T02:57:51.527Z,35.44481605351171
2023-06-17T03:06:16.613Z,36.84615384615385
2023-06-17T03:12:36.408Z,38.408026755852845
2023-06-17T03:18:56.840Z,40.438127090301
2023-06-17T03:30:31.302Z,44.05685618729097
2023-06-17T03:36:51.467Z,46.88294314381271
2023-06-17T03:43:15.518Z,43.34782608695652
2023-06-17T03:49:38.488Z,42.74247491638796
2023-06-17T03:56:00.515Z,39.264214046822744
2023-06-17T04:02:23.179Z,39.5685618729097
2023-06-17T04:08:46.316Z,39.51505016722408
2023-06-17T04:15:08.700Z,40.18394648829432
2023-06-17T04:22:02.527Z,38.80602006688963
2023-06-17T04:32:52.825Z,36.96655518394649
2023-06-17T04:41:36.451Z,37.05685618729097
2023-06-17T04:47:59.110Z,36.00334448160535
2023-06-17T04:54:21.088Z,36.16722408026756
2023-06-17T05:04:11.728Z,37.84615384615385
2023-06-17T05:10:34.878Z,36.12709030100334
2023-06-17T05:16:57.955Z,35.903010033444815
2023-06-17T05:23:21.369Z,34.14046822742475
2023-06-17T05:34:52.771Z,33.77591973244147
2023-06-17T05:41:18.692Z,32.16053511705686
2023-06-17T05:47:41.523Z,29.62541806020067
2023-06-17T05:58:25.875Z,30.51170568561873
2023-06-17T06:10:29.804Z,29.989966555183948
2023-06-17T06:16:52.681Z,29.705685618729095
2023-06-17T06:23:15.422Z,32.1438127090301
2023-06-17T06:34:56.878Z,33.5685618729097
2023-06-17T06:42:36.669Z,30.421404682274247
2023-06-17T06:48:58.924Z,33.42809364548495
2023-06-17T06:55:22.538Z,32.37123745819398
2023-06-17T07:02:07.839Z,33.13377926421405
2023-06-17T07:15:25.319Z,35.37123745819398
2023-06-17T07:21:47.517Z,35.45484949832776
2023-06-17T07:28:10.261Z,35.91304347826087
2023-06-17T07:34:32.837Z,35.180602006688964
2023-06-17T07:40:54.799Z,35.06020066889632
2023-06-17T07:48:41.064Z,35.49832775919732
2023-06-17T08:01:17.517Z,36.936454849498325
2023-06-17T08:07:39.712Z,37.792642140468224
2023-06-17T08:14:31.096Z,36.7056856187291
2023-06-17T08:22:33.420Z,36.448160535117054
2023-06-17T08:28:56.780Z,37.11705685618729
2023-06-17T08:35:20.551Z,45.64548494983278
2023-06-17T08:43:19.190Z,40.55518394648829
2023-06-17T08:49:43.870Z,37.45484949832776
2023-06-17T08:56:08.982Z,40.30100334448161
2023-06-17T09:02:33.157Z,41.852842809364546
2023-06-17T09:08:56.670Z,40.97658862876254
2023-06-17T09:15:20.697Z,40.65551839464883
2023-06-17T09:22:21.473Z,40.896321070234116
2023-06-17T09:29:29.716Z,42.72240802675585
2023-06-17T09:40:45.981Z,41.04347826086956
2023-06-17T09:54:50.421Z,42.668896321070235
2023-06-17T10:05:18.865Z,41.96321070234114
2023-06-17T10:15:03.649Z,39.331103678929765
2023-06-17T10:21:29.146Z,39.458193979933114
2023-06-17T10:27:52.988Z,42.23411371237458
2023-06-17T10:34:17.180Z,39.59531772575251
2023-06-17T10:40:40.954Z,40.06020066889632
2023-06-17T10:47:04.585Z,39.52842809364549
2023-06-17T10:53:29.177Z,35.79933110367893
2023-06-17T11:11:41.590Z,35.60200668896321
2023-06-17T11:18:06.282Z,33.618729096989966
2023-06-17T11:26:58.369Z,33.69230769230769
2023-06-17T11:36:54.000Z,28.976588628762542
2023-06-17T11:48:52.576Z,32.438127090301
2023-06-17T11:55:16.011Z,30.016722408026755
2023-06-17T12:01:40.200Z,28.471571906354516
2023-06-17T12:08:02.781Z,29.662207357859533
2023-06-17T12:19:45.852Z,28.214046822742475
2023-06-17T12:31:10.333Z,25.54180602006689
2023-06-17T12:37:33.220Z,24.755852842809364
2023-06-17T12:43:55.915Z,23.849498327759196
2023-06-17T12:50:18.914Z,22.959866220735787
2023-06-17T12:56:55.605Z,23.367892976588628
2023-06-17T13:03:19.077Z,23.270903010033443
2023-06-17T13:09:42.519Z,21.73913043478261
2023-06-17T13:16:05.517Z,20.588628762541806
2023-06-17T13:22:28.258Z,19.67558528428094
2023-06-17T13:28:51.564Z,19.712374581939798
2023-06-17T13:50:37.680Z,17.08695652173913
2023-06-17T13:57:00.379Z,18.438127090301002
2023-06-17T14:03:23.833Z,18.63545150501672
2023-06-17T14:12:21.808Z,20.65551839464883
2023-06-17T14:18:45.008Z,22.759197324414714
2023-06-17T14:25:07.470Z,20.51505016722408
2023-06-17T14:31:30.571Z,20.869565217391305
2023-06-17T14:37:54.032Z,19.79933110367893
2023-06-17T14:48:26.031Z,19.672240802675585
2023-06-17T14:54:50.336Z,18.899665551839465
2023-06-17T15:04:53.368Z,17.692307692307693
2023-06-17T15:11:17.959Z,17.217391304347824
2023-06-17T15:17:41.427Z,16.220735785953178
2023-06-17T15:24:36.288Z,17.57190635451505
2023-06-17T15:36:35.546Z,18.775919732441473
2023-06-17T15:42:59.668Z,18.97993311036789
2023-06-17T15:59:22.155Z,18.79933110367893
2023-06-17T16:05:45.231Z,17.130434782608695
2023-06-17T16:12:08.540Z,16.49163879598662
2023-06-17T16:20:29.960Z,13.94314381270903
2023-06-17T16:31:36.320Z,13.755852842809364
2023-06-17T16:38:00.671Z,13.939799331103679
2023-06-17T16:44:24.791Z,14.080267558528428
2023-06-17T16:50:49.767Z,12.856187290969899
2023-06-17T16:57:13.018Z,14.351170568561873
2023-06-17T17:03:36.769Z,15.210702341137123
2023-06-17T17:10:00.417Z,15.575250836120402
2023-06-17T17:16:23.660Z,15.702341137123746
2023-06-17T17:28:38.764Z,15.08695652173913
2023-06-17T17:35:01.861Z,17.05351170568562
2023-06-17T17:41:24.899Z,20.48494983277592
2023-06-17T17:59:28.313Z,23.334448160535118
2023-06-17T18:07:01.989Z,23.93645484949833
2023-06-17T18:13:24.435Z,23.963210702341136
2023-06-17T18:19:47.123Z,25.11371237458194
2023-06-17T18:26:09.477Z,24.32441471571906
2023-06-17T18:32:31.372Z,25.782608695652176
2023-06-17T18:38:54.343Z,26.023411371237458
2023-06-17T18:45:17.494Z,25.76923076923077
2023-06-17T18:51:41.219Z,25.842809364548494
2023-06-17T19:04:50.921Z,25.00334448160535
2023-06-17T19:18:38.190Z,25.337792642140467
2023-06-17T19:25:01.070Z,23.317725752508363
2023-06-17T19:31:24.781Z,24.551839464882942
2023-06-17T19:42:38.301Z,21.32441471571906
2023-06-17T19:48:59.055Z,23.31438127090301
2023-06-17T19:55:21.639Z,23.13377926421405
2023-06-17T20:08:30.077Z,25.140468227424748
2023-06-17T20:14:51.003Z,26.334448160535118
2023-06-17T20:27:43.748Z,26.16722408026756
2023-06-17T20:34:04.399Z,25.327759197324415
2023-06-17T20:44:11.553Z,27.016722408026755
2023-06-17T20:50:32.212Z,26.879598662207357
2023-06-17T20:56:52.901Z,26.645484949832777
2023-06-17T21:03:13.973Z,29.51505016722408
2023-06-17T21:09:34.908Z,29.879598662207357
2023-06-17T21:22:07.019Z,30.722408026755854
2023-06-17T21:28:32.392Z,30.013377926421406
2023-06-17T21:38:19.491Z,32.297658862876254
2023-06-17T21:50:51.296Z,33.18394648829432
2023-06-17T21:57:12.733Z,31.62876254180602
2023-06-17T22:07:23.643Z,32.67892976588629
2023-06-17T22:19:38.647Z,32.635451505016725
2023-06-17T22:33:28.719Z,31.762541806020067
2023-06-17T22:44:47.415Z,29.632107023411372
2023-06-17T22:51:08.116Z,31.48829431438127
2023-06-17T22:57:28.468Z,30.588628762541806
2023-06-17T23:03:49.300Z,28.85284280936455
2023-06-17T23:10:56.769Z,31.304347826086957
2023-06-17T23:17:17.525Z,31.555183946488295
2023-06-17T23:23:37.981Z,30.819397993311036
2023-06-17T23:42:29.146Z,32.5685618729097
2023-06-17T23:48:50.423Z,32.438127090301
2023-06-17T23:55:11.931Z,33.297658862876254
